ESCF/LPI METAR and TAF weather

Enter ICAO airport designator
Station Type Date Time Source
ESCF METAR 2019/09/21 04:20 UTC NOAA

ESCF 210420Z AUTO 25008KT 9999 NCD 10/10 Q1016


Station Type Date Time Source
ESCF Decoded METAR 2019/09/21 04:20 UTC NOAA

Linkoping / Malmen, Sweden (ESCF) 58-24N 015-31E 117M
Sep 21, 2019 - 12:20 AM EDT / 2019.09.21 0420 UTC
Wind: from the WSW (250 degrees) at 9 MPH (8 KT):0
Visibility: greater than 7 mile(s):0
Temperature: 50 F (10 C)
Dew Point: 50 F (10 C)
Relative Humidity: 100%
Pressure (altimeter): 30.00 in. Hg (1016 hPa)
ob: ESCF 210420Z AUTO 25008KT 9999 NCD 10/10 Q1016
cycle: 4

Station Type Date Time Source
ESCF TAF UTC NOAA

Error!

Example: see airport list